sensor_id;sensor_type;location;lat;lon;timestamp;pressure;altitude;pressure_sealevel;temperature;humidity
22872;BME280;11603;44.910;8.630;2023-04-15T00:06:21;99406.25;;;13.50;100.00
22872;BME280;11603;44.910;8.630;2023-04-15T00:17:28;99385.22;;;13.17;100.00
22872;BME280;11603;44.910;8.630;2023-04-15T00:31:58;99373.84;;;12.75;100.00
22872;BME280;11603;44.910;8.630;2023-04-15T00:35:23;99368.59;;;12.64;100.00
22872;BME280;11603;44.910;8.630;2023-04-15T00:39:00;99366.22;;;12.61;100.00
22872;BME280;11603;44.910;8.630;2023-04-15T00:45:38;99358.59;;;12.66;100.00
22872;BME280;11603;44.910;8.630;2023-04-15T00:49:08;99361.53;;;12.63;100.00
22872;BME280;11603;44.910;8.630;2023-04-15T00:56:27;99358.41;;;12.48;100.00
22872;BME280;11603;44.910;8.630;2023-04-15T01:11:20;99361.09;;;12.48;100.00
22872;BME280;11603;44.910;8.630;2023-04-15T01:14:50;99359.50;;;12.46;100.00
22872;BME280;11603;44.910;8.630;2023-04-15T01:34:48;99386.81;;;12.20;100.00
22872;BME280;11603;44.910;8.630;2023-04-15T01:48:24;99381.84;;;12.16;100.00
22872;BME280;11603;44.910;8.630;2023-04-15T01:51:54;99377.63;;;12.13;100.00
22872;BME280;11603;44.910;8.630;2023-04-15T02:03:17;99380.06;;;11.96;100.00
22872;BME280;11603;44.910;8.630;2023-04-15T02:06:54;99372.97;;;11.85;100.00
22872;BME280;11603;44.910;8.630;2023-04-15T02:29:57;99385.03;;;11.59;100.00
22872;BME280;11603;44.910;8.630;2023-04-15T02:45:15;99386.63;;;11.40;100.00
22872;BME280;11603;44.910;8.630;2023-04-15T02:52:24;99380.72;;;11.26;100.00
22872;BME280;11603;44.910;8.630;2023-04-15T03:03:52;99392.22;;;11.37;100.00
22872;BME280;11603;44.910;8.630;2023-04-15T03:44:39;99398.00;;;10.90;100.00
22872;BME280;11603;44.910;8.630;2023-04-15T03:47:53;99403.75;;;10.85;100.00
22872;BME280;11603;44.910;8.630;2023-04-15T04:02:18;99421.66;;;10.62;100.00
22872;BME280;11603;44.910;8.630;2023-04-15T04:05:53;99424.72;;;10.58;100.00
22872;BME280;11603;44.910;8.630;2023-04-15T04:16:25;99425.13;;;10.20;100.00
22872;BME280;11603;44.910;8.630;2023-04-15T04:18:51;99427.91;;;10.18;100.00
22872;BME280;11603;44.910;8.630;2023-04-15T04:21:16;99433.44;;;10.15;100.00
22872;BME280;11603;44.910;8.630;2023-04-15T04:28:01;99439.78;;;10.14;100.00
22872;BME280;11603;44.910;8.630;2023-04-15T04:34:31;99448.16;;;9.99;100.00
22872;BME280;11603;44.910;8.630;2023-04-15T04:36:56;99447.28;;;9.98;100.00
22872;BME280;11603;44.910;8.630;2023-04-15T04:39:22;99453.84;;;9.94;100.00
22872;BME280;11603;44.910;8.630;2023-04-15T04:41:48;99446.53;;;9.96;100.00
22872;BME280;11603;44.910;8.630;2023-04-15T04:44:14;99451.66;;;9.88;100.00
22872;BME280;11603;44.910;8.630;2023-04-15T04:46:40;99451.88;;;9.85;100.00
22872;BME280;11603;44.910;8.630;2023-04-15T04:49:05;99453.47;;;9.88;100.00
22872;BME280;11603;44.910;8.630;2023-04-15T04:51:31;99458.19;;;9.95;100.00
22872;BME280;11603;44.910;8.630;2023-04-15T04:53:56;99455.06;;;10.01;100.00
22872;BME280;11603;44.910;8.630;2023-04-15T04:56:22;99461.50;;;9.99;100.00
22872;BME280;11603;44.910;8.630;2023-04-15T04:58:47;99462.69;;;9.95;100.00
22872;BME280;11603;44.910;8.630;2023-04-15T05:01:13;99471.41;;;9.86;100.00
22872;BME280;11603;44.910;8.630;2023-04-15T05:03:38;99465.97;;;9.87;100.00
22872;BME280;11603;44.910;8.630;2023-04-15T05:06:04;99471.44;;;9.97;100.00
22872;BME280;11603;44.910;8.630;2023-04-15T05:08:33;99466.47;;;10.03;100.00
22872;BME280;11603;44.910;8.630;2023-04-15T05:10:58;99463.13;;;10.24;100.00
22872;BME280;11603;44.910;8.630;2023-04-15T05:13:24;99474.31;;;10.51;100.00
22872;BME280;11603;44.910;8.630;2023-04-15T05:15:50;99479.63;;;10.73;100.00
22872;BME280;11603;44.910;8.630;2023-04-15T05:18:15;99475.13;;;10.85;100.00
22872;BME280;11603;44.910;8.630;2023-04-15T05:20:41;99476.69;;;10.98;100.00
22872;BME280;11603;44.910;8.630;2023-04-15T05:23:06;99480.44;;;11.07;100.00
22872;BME280;11603;44.910;8.630;2023-04-15T05:25:32;99485.88;;;11.17;100.00
22872;BME280;11603;44.910;8.630;2023-04-15T05:27:57;99476.41;;;11.13;100.00
22872;BME280;11603;44.910;8.630;2023-04-15T05:30:23;99479.53;;;11.18;100.00
22872;BME280;11603;44.910;8.630;2023-04-15T05:32:48;99482.56;;;11.24;100.00
22872;BME280;11603;44.910;8.630;2023-04-15T05:35:14;99487.44;;;11.30;100.00
22872;BME280;11603;44.910;8.630;2023-04-15T05:37:39;99487.91;;;11.35;100.00
22872;BME280;11603;44.910;8.630;2023-04-15T05:40:05;99506.38;;;11.38;100.00
22872;BME280;11603;44.910;8.630;2023-04-15T05:42:31;99510.88;;;11.38;100.00
22872;BME280;11603;44.910;8.630;2023-04-15T05:44:56;99517.66;;;11.42;100.00
22872;BME280;11603;44.910;8.630;2023-04-15T05:47:22;99520.97;;;11.45;100.00
22872;BME280;11603;44.910;8.630;2023-04-15T05:49:47;99525.94;;;11.50;100.00
22872;BME280;11603;44.910;8.630;2023-04-15T05:52:13;99528.69;;;11.60;100.00
22872;BME280;11603;44.910;8.630;2023-04-15T05:54:38;99535.38;;;11.65;100.00
22872;BME280;11603;44.910;8.630;2023-04-15T05:57:04;99537.78;;;11.68;100.00
22872;BME280;11603;44.910;8.630;2023-04-15T05:59:29;99538.69;;;11.46;100.00
22872;BME280;11603;44.910;8.630;2023-04-15T06:01:55;99528.66;;;11.39;100.00
22872;BME280;11603;44.910;8.630;2023-04-15T06:04:21;99535.84;;;11.27;100.00
22872;BME280;11603;44.910;8.630;2023-04-15T06:06:47;99528.56;;;11.18;100.00
22872;BME280;11603;44.910;8.630;2023-04-15T06:09:12;99522.50;;;11.05;100.00
22872;BME280;11603;44.910;8.630;2023-04-15T06:11:38;99527.63;;;11.08;100.00
22872;BME280;11603;44.910;8.630;2023-04-15T06:14:05;99533.56;;;11.12;100.00
22872;BME280;11603;44.910;8.630;2023-04-15T06:16:31;99538.84;;;10.91;100.00
22872;BME280;11603;44.910;8.630;2023-04-15T06:18:56;99544.56;;;10.75;100.00
22872;BME280;11603;44.910;8.630;2023-04-15T06:21:22;99543.69;;;10.63;100.00
22872;BME280;11603;44.910;8.630;2023-04-15T06:23:47;99546.25;;;10.76;100.00
22872;BME280;11603;44.910;8.630;2023-04-15T06:26:13;99547.44;;;10.94;100.00
22872;BME280;11603;44.910;8.630;2023-04-15T06:28:38;99538.81;;;11.13;100.00
22872;BME280;11603;44.910;8.630;2023-04-15T06:31:04;99526.19;;;11.36;100.00
22872;BME280;11603;44.910;8.630;2023-04-15T06:33:30;99535.75;;;11.61;100.00
22872;BME280;11603;44.910;8.630;2023-04-15T06:35:56;99534.38;;;11.77;100.00
22872;BME280;11603;44.910;8.630;2023-04-15T06:38:21;99523.34;;;11.92;100.00
22872;BME280;11603;44.910;8.630;2023-04-15T06:40:46;99526.81;;;12.03;100.00
22872;BME280;11603;44.910;8.630;2023-04-15T06:43:12;99524.84;;;12.05;100.00
22872;BME280;11603;44.910;8.630;2023-04-15T06:45:38;99533.50;;;12.09;100.00
22872;BME280;11603;44.910;8.630;2023-04-15T06:48:04;99533.09;;;12.13;100.00
22872;BME280;11603;44.910;8.630;2023-04-15T06:50:30;99538.06;;;12.18;100.00
22872;BME280;11603;44.910;8.630;2023-04-15T06:52:55;99538.63;;;12.21;100.00
22872;BME280;11603;44.910;8.630;2023-04-15T06:55:21;99539.22;;;12.25;100.00
22872;BME280;11603;44.910;8.630;2023-04-15T06:57:47;99542.50;;;12.28;100.00
22872;BME280;11603;44.910;8.630;2023-04-15T07:00:13;99538.84;;;12.29;100.00
22872;BME280;11603;44.910;8.630;2023-04-15T07:02:38;99548.56;;;12.30;100.00
22872;BME280;11603;44.910;8.630;2023-04-15T07:05:05;99544.50;;;12.36;100.00
22872;BME280;11603;44.910;8.630;2023-04-15T07:07:31;99547.19;;;12.36;100.00
22872;BME280;11603;44.910;8.630;2023-04-15T07:09:56;99551.91;;;12.44;100.00
22872;BME280;11603;44.910;8.630;2023-04-15T07:12:22;99544.75;;;12.54;100.00
22872;BME280;11603;44.910;8.630;2023-04-15T07:14:47;99553.13;;;12.60;100.00
22872;BME280;11603;44.910;8.630;2023-04-15T07:17:13;99550.50;;;12.70;100.00
22872;BME280;11603;44.910;8.630;2023-04-15T07:19:39;99547.50;;;12.63;100.00
22872;BME280;11603;44.910;8.630;2023-04-15T07:22:09;99555.13;;;12.68;100.00
22872;BME280;11603;44.910;8.630;2023-04-15T07:24:34;99558.88;;;12.77;100.00
22872;BME280;11603;44.910;8.630;2023-04-15T07:27:00;99548.25;;;12.75;100.00
22872;BME280;11603;44.910;8.630;2023-04-15T07:29:26;99547.72;;;12.81;100.00
22872;BME280;11603;44.910;8.630;2023-04-15T07:31:51;99553.38;;;12.88;100.00
22872;BME280;11603;44.910;8.630;2023-04-15T07:34:18;99543.25;;;12.91;100.00
22872;BME280;11603;44.910;8.630;2023-04-15T07:36:44;99541.56;;;13.00;100.00
22872;BME280;11603;44.910;8.630;2023-04-15T07:39:10;99533.94;;;13.05;100.00
22872;BME280;11603;44.910;8.630;2023-04-15T07:41:36;99538.69;;;13.12;100.00
22872;BME280;11603;44.910;8.630;2023-04-15T07:44:01;99541.50;;;13.21;100.00
22872;BME280;11603;44.910;8.630;2023-04-15T07:46:27;99529.94;;;13.30;100.00
22872;BME280;11603;44.910;8.630;2023-04-15T07:48:52;99529.81;;;13.41;100.00
22872;BME280;11603;44.910;8.630;2023-04-15T07:51:19;99528.16;;;13.49;100.00
22872;BME280;11603;44.910;8.630;2023-04-15T07:53:56;99520.78;;;13.61;100.00
22872;BME280;11603;44.910;8.630;2023-04-15T07:56:24;99527.47;;;13.76;100.00
22872;BME280;11603;44.910;8.630;2023-04-15T07:58:50;99512.44;;;13.83;100.00
22872;BME280;11603;44.910;8.630;2023-04-15T08:01:19;99521.22;;;13.85;100.00
22872;BME280;11603;44.910;8.630;2023-04-15T08:03:45;99526.72;;;13.93;100.00
22872;BME280;11603;44.910;8.630;2023-04-15T08:06:11;99521.22;;;13.95;100.00
22872;BME280;11603;44.910;8.630;2023-04-15T08:08:38;99516.25;;;14.00;100.00
22872;BME280;11603;44.910;8.630;2023-04-15T08:11:04;99512.47;;;14.03;100.00
22872;BME280;11603;44.910;8.630;2023-04-15T08:13:30;99514.09;;;14.13;100.00
22872;BME280;11603;44.910;8.630;2023-04-15T08:18:43;99511.69;;;14.20;100.00
22872;BME280;11603;44.910;8.630;2023-04-15T08:21:09;99510.00;;;14.38;100.00
22872;BME280;11603;44.910;8.630;2023-04-15T08:23:34;99503.69;;;14.57;100.00
22872;BME280;11603;44.910;8.630;2023-04-15T08:26:00;99509.75;;;14.68;100.00
22872;BME280;11603;44.910;8.630;2023-04-15T08:28:25;99497.25;;;14.77;100.00
22872;BME280;11603;44.910;8.630;2023-04-15T08:30:54;99491.75;;;14.69;100.00
22872;BME280;11603;44.910;8.630;2023-04-15T08:33:19;99501.38;;;14.71;100.00
22872;BME280;11603;44.910;8.630;2023-04-15T08:35:45;99494.47;;;14.69;100.00
22872;BME280;11603;44.910;8.630;2023-04-15T08:38:11;99488.81;;;14.62;100.00
22872;BME280;11603;44.910;8.630;2023-04-15T08:40:45;99481.03;;;14.59;100.00
22872;BME280;11603;44.910;8.630;2023-04-15T08:43:26;99491.75;;;14.69;100.00
22872;BME280;11603;44.910;8.630;2023-04-15T08:45:54;99488.97;;;14.88;100.00
22872;BME280;11603;44.910;8.630;2023-04-15T08:48:20;99485.94;;;15.01;100.00
22872;BME280;11603;44.910;8.630;2023-04-15T08:50:47;99495.88;;;15.00;100.00
22872;BME280;11603;44.910;8.630;2023-04-15T08:53:13;99493.25;;;15.08;100.00
22872;BME280;11603;44.910;8.630;2023-04-15T08:55:44;99483.97;;;14.93;100.00
22872;BME280;11603;44.910;8.630;2023-04-15T08:58:11;99482.19;;;15.11;100.00
22872;BME280;11603;44.910;8.630;2023-04-15T09:00:38;99485.84;;;15.38;100.00
22872;BME280;11603;44.910;8.630;2023-04-15T09:03:05;99490.00;;;15.32;100.00
22872;BME280;11603;44.910;8.630;2023-04-15T09:05:32;99478.75;;;15.37;100.00
22872;BME280;11603;44.910;8.630;2023-04-15T09:07:58;99472.81;;;15.51;100.00
22872;BME280;11603;44.910;8.630;2023-04-15T09:10:23;99468.56;;;15.58;100.00
22872;BME280;11603;44.910;8.630;2023-04-15T09:12:49;99471.09;;;15.59;100.00
22872;BME280;11603;44.910;8.630;2023-04-15T09:15:14;99470.03;;;15.70;100.00
22872;BME280;11603;44.910;8.630;2023-04-15T09:17:46;99465.22;;;15.82;100.00
22872;BME280;11603;44.910;8.630;2023-04-15T09:20:14;99470.31;;;15.85;100.00
22872;BME280;11603;44.910;8.630;2023-04-15T09:22:42;99463.38;;;15.82;100.00
22872;BME280;11603;44.910;8.630;2023-04-15T09:27:51;99464.81;;;15.94;100.00
22872;BME280;11603;44.910;8.630;2023-04-15T09:30:17;99462.06;;;16.12;100.00
22872;BME280;11603;44.910;8.630;2023-04-15T09:32:56;99455.56;;;16.23;100.00
22872;BME280;11603;44.910;8.630;2023-04-15T09:35:23;99461.06;;;16.13;100.00
22872;BME280;11603;44.910;8.630;2023-04-15T09:37:49;99466.72;;;16.02;96.38
22872;BME280;11603;44.910;8.630;2023-04-15T09:40:35;99461.50;;;16.26;93.93
22872;BME280;11603;44.910;8.630;2023-04-15T09:43:05;99459.06;;;16.41;96.85
22872;BME280;11603;44.910;8.630;2023-04-15T09:45:32;99466.47;;;16.65;96.43
22872;BME280;11603;44.910;8.630;2023-04-15T09:47:59;99463.00;;;16.80;96.83
22872;BME280;11603;44.910;8.630;2023-04-15T09:50:40;99460.63;;;16.77;98.60
22872;BME280;11603;44.910;8.630;2023-04-15T09:53:14;99462.03;;;16.89;98.02
22872;BME280;11603;44.910;8.630;2023-04-15T09:55:53;99446.13;;;16.86;99.36
22872;BME280;11603;44.910;8.630;2023-04-15T09:58:27;99448.75;;;17.04;96.88
22872;BME280;11603;44.910;8.630;2023-04-15T10:00:54;99447.09;;;17.27;96.33
22872;BME280;11603;44.910;8.630;2023-04-15T10:03:22;99434.47;;;17.44;94.60
22872;BME280;11603;44.910;8.630;2023-04-15T10:05:49;99432.81;;;17.67;90.05
22872;BME280;11603;44.910;8.630;2023-04-15T10:08:20;99429.13;;;17.68;86.90
22872;BME280;11603;44.910;8.630;2023-04-15T10:10:47;99430.97;;;17.84;87.67
22872;BME280;11603;44.910;8.630;2023-04-15T10:13:16;99431.47;;;17.88;84.60
22872;BME280;11603;44.910;8.630;2023-04-15T10:16:09;99417.78;;;17.65;88.13
22872;BME280;11603;44.910;8.630;2023-04-15T10:22:14;99418.06;;;18.18;82.82
22872;BME280;11603;44.910;8.630;2023-04-15T10:24:59;99416.84;;;18.29;81.59
22872;BME280;11603;44.910;8.630;2023-04-15T10:27:59;99418.25;;;18.09;81.58
22872;BME280;11603;44.910;8.630;2023-04-15T10:34:58;99390.56;;;17.83;86.01
22872;BME280;11603;44.910;8.630;2023-04-15T10:41:43;99391.91;;;17.70;87.79
22872;BME280;11603;44.910;8.630;2023-04-15T11:06:04;99363.25;;;19.25;75.68
22872;BME280;11603;44.910;8.630;2023-04-15T11:08:58;99369.53;;;19.49;73.44
22872;BME280;11603;44.910;8.630;2023-04-15T11:12:11;99367.78;;;19.56;71.93
22872;BME280;11603;44.910;8.630;2023-04-15T11:14:54;99378.47;;;19.03;73.19
22872;BME280;11603;44.910;8.630;2023-04-15T11:17:45;99364.41;;;19.31;74.35
22872;BME280;11603;44.910;8.630;2023-04-15T11:20:38;99365.69;;;19.80;71.63
22872;BME280;11603;44.910;8.630;2023-04-15T11:24:35;99364.66;;;19.81;70.04
22872;BME280;11603;44.910;8.630;2023-04-15T11:40:02;99341.28;;;20.68;66.14
22872;BME280;11603;44.910;8.630;2023-04-15T11:51:08;99346.34;;;20.57;65.90
22872;BME280;11603;44.910;8.630;2023-04-15T12:09:08;99346.97;;;19.71;71.42
22872;BME280;11603;44.910;8.630;2023-04-15T13:38:38;99369.94;;;19.15;71.75
22872;BME280;11603;44.910;8.630;2023-04-15T16:08:46;99456.78;;;18.90;61.25
22872;BME280;11603;44.910;8.630;2023-04-15T16:59:17;99499.28;;;18.98;58.86
22872;BME280;11603;44.910;8.630;2023-04-15T20:44:17;99871.75;;;14.93;100.00
22872;BME280;11603;44.910;8.630;2023-04-15T22:06:05;99980.44;;;14.92;100.00
